sensor_id;sensor_type;location;lat;lon;timestamp;temperature;humidity
68485;DHT22;55472;50.060;21.960;2023-04-09T00:00:01;0.50;98.80
68485;DHT22;55472;50.060;21.960;2023-04-09T00:02:27;0.50;98.70
68485;DHT22;55472;50.060;21.960;2023-04-09T00:04:53;0.40;98.80
68485;DHT22;55472;50.060;21.960;2023-04-09T00:07:20;0.40;99.00
68485;DHT22;55472;50.060;21.960;2023-04-09T00:09:46;0.40;99.10
68485;DHT22;55472;50.060;21.960;2023-04-09T00:12:12;0.40;99.20
68485;DHT22;55472;50.060;21.960;2023-04-09T00:14:38;0.40;99.30
68485;DHT22;55472;50.060;21.960;2023-04-09T00:17:04;0.50;99.20
68485;DHT22;55472;50.060;21.960;2023-04-09T00:19:30;0.50;99.30
68485;DHT22;55472;50.060;21.960;2023-04-09T00:21:58;0.50;99.40
68485;DHT22;55472;50.060;21.960;2023-04-09T00:24:23;0.50;99.50
68485;DHT22;55472;50.060;21.960;2023-04-09T00:26:50;0.50;99.70
68485;DHT22;55472;50.060;21.960;2023-04-09T00:29:18;0.50;99.80
68485;DHT22;55472;50.060;21.960;2023-04-09T00:31:44;0.50;99.90
68485;DHT22;55472;50.060;21.960;2023-04-09T00:34:10;0.50;99.90
68485;DHT22;55472;50.060;21.960;2023-04-09T00:36:36;0.60;99.90
68485;DHT22;55472;50.060;21.960;2023-04-09T00:39:02;0.60;99.90
68485;DHT22;55472;50.060;21.960;2023-04-09T00:41:29;0.60;99.90
68485;DHT22;55472;50.060;21.960;2023-04-09T00:43:55;0.60;99.90
68485;DHT22;55472;50.060;21.960;2023-04-09T00:46:22;0.60;99.90
68485;DHT22;55472;50.060;21.960;2023-04-09T00:48:48;0.60;99.90
68485;DHT22;55472;50.060;21.960;2023-04-09T00:51:14;0.60;99.90
68485;DHT22;55472;50.060;21.960;2023-04-09T00:53:41;0.70;99.90
68485;DHT22;55472;50.060;21.960;2023-04-09T00:56:10;0.70;99.90
68485;DHT22;55472;50.060;21.960;2023-04-09T00:58:37;0.70;99.90
68485;DHT22;55472;50.060;21.960;2023-04-09T01:01:05;0.70;99.90
68485;DHT22;55472;50.060;21.960;2023-04-09T01:03:31;0.70;99.90
68485;DHT22;55472;50.060;21.960;2023-04-09T01:09:26;0.70;99.90
68485;DHT22;55472;50.060;21.960;2023-04-09T01:15:15;0.80;99.90
68485;DHT22;55472;50.060;21.960;2023-04-09T01:17:53;0.80;99.90
68485;DHT22;55472;50.060;21.960;2023-04-09T01:28:34;0.80;99.90
68485;DHT22;55472;50.060;21.960;2023-04-09T01:31:08;0.80;99.90
68485;DHT22;55472;50.060;21.960;2023-04-09T01:33:38;0.90;99.90
68485;DHT22;55472;50.060;21.960;2023-04-09T01:36:06;0.80;99.90
68485;DHT22;55472;50.060;21.960;2023-04-09T01:38:39;0.80;99.90
68485;DHT22;55472;50.060;21.960;2023-04-09T01:41:13;0.90;99.90
68485;DHT22;55472;50.060;21.960;2023-04-09T01:43:41;0.90;99.90
68485;DHT22;55472;50.060;21.960;2023-04-09T01:46:08;0.90;99.90
68485;DHT22;55472;50.060;21.960;2023-04-09T01:48:36;0.90;99.90
68485;DHT22;55472;50.060;21.960;2023-04-09T01:51:03;0.90;99.90
68485;DHT22;55472;50.060;21.960;2023-04-09T01:53:29;0.90;99.90
68485;DHT22;55472;50.060;21.960;2023-04-09T01:55:59;0.90;99.90
68485;DHT22;55472;50.060;21.960;2023-04-09T01:58:26;1.00;99.90
68485;DHT22;55472;50.060;21.960;2023-04-09T02:01:00;0.90;99.90
68485;DHT22;55472;50.060;21.960;2023-04-09T02:03:34;1.00;99.90
68485;DHT22;55472;50.060;21.960;2023-04-09T02:06:16;1.00;99.90
68485;DHT22;55472;50.060;21.960;2023-04-09T02:08:46;1.00;99.90
68485;DHT22;55472;50.060;21.960;2023-04-09T02:11:14;1.00;99.90
68485;DHT22;55472;50.060;21.960;2023-04-09T02:13:42;1.00;99.90
68485;DHT22;55472;50.060;21.960;2023-04-09T02:16:10;1.10;99.90
68485;DHT22;55472;50.060;21.960;2023-04-09T02:18:38;1.00;99.90
68485;DHT22;55472;50.060;21.960;2023-04-09T02:21:04;1.10;99.90
68485;DHT22;55472;50.060;21.960;2023-04-09T02:23:31;1.10;99.90
68485;DHT22;55472;50.060;21.960;2023-04-09T02:25:58;1.10;99.90
68485;DHT22;55472;50.060;21.960;2023-04-09T02:28:24;1.10;99.90
68485;DHT22;55472;50.060;21.960;2023-04-09T02:30:50;1.10;99.90
68485;DHT22;55472;50.060;21.960;2023-04-09T02:33:16;1.10;99.90
68485;DHT22;55472;50.060;21.960;2023-04-09T02:35:42;1.10;99.90
68485;DHT22;55472;50.060;21.960;2023-04-09T02:38:10;1.10;99.90
68485;DHT22;55472;50.060;21.960;2023-04-09T02:40:40;1.20;99.90
68485;DHT22;55472;50.060;21.960;2023-04-09T02:43:08;1.20;99.90
68485;DHT22;55472;50.060;21.960;2023-04-09T02:45:35;1.20;99.90
68485;DHT22;55472;50.060;21.960;2023-04-09T02:48:01;1.10;99.90
68485;DHT22;55472;50.060;21.960;2023-04-09T02:50:27;1.10;99.90
68485;DHT22;55472;50.060;21.960;2023-04-09T02:52:54;1.20;99.90
68485;DHT22;55472;50.060;21.960;2023-04-09T02:55:20;1.20;99.90
68485;DHT22;55472;50.060;21.960;2023-04-09T02:57:46;1.20;99.90
68485;DHT22;55472;50.060;21.960;2023-04-09T03:00:12;1.20;99.90
68485;DHT22;55472;50.060;21.960;2023-04-09T03:02:39;1.20;99.90
68485;DHT22;55472;50.060;21.960;2023-04-09T03:05:05;1.10;99.90
68485;DHT22;55472;50.060;21.960;2023-04-09T03:07:32;1.10;99.90
68485;DHT22;55472;50.060;21.960;2023-04-09T03:09:58;1.10;99.90
68485;DHT22;55472;50.060;21.960;2023-04-09T03:12:24;1.20;99.90
68485;DHT22;55472;50.060;21.960;2023-04-09T03:14:50;1.20;99.90
68485;DHT22;55472;50.060;21.960;2023-04-09T03:17:16;1.20;99.90
68485;DHT22;55472;50.060;21.960;2023-04-09T03:19:42;1.30;99.90
68485;DHT22;55472;50.060;21.960;2023-04-09T03:22:09;1.30;99.90
68485;DHT22;55472;50.060;21.960;2023-04-09T03:24:35;1.30;99.90
68485;DHT22;55472;50.060;21.960;2023-04-09T03:27:01;1.30;99.90
68485;DHT22;55472;50.060;21.960;2023-04-09T03:29:27;1.30;99.90
68485;DHT22;55472;50.060;21.960;2023-04-09T03:31:53;1.30;99.90
68485;DHT22;55472;50.060;21.960;2023-04-09T03:34:19;1.40;99.90
68485;DHT22;55472;50.060;21.960;2023-04-09T03:36:46;1.40;99.90
68485;DHT22;55472;50.060;21.960;2023-04-09T03:39:12;1.40;99.90
68485;DHT22;55472;50.060;21.960;2023-04-09T03:41:38;1.50;99.90
68485;DHT22;55472;50.060;21.960;2023-04-09T03:44:04;1.50;99.90
68485;DHT22;55472;50.060;21.960;2023-04-09T03:46:30;1.50;99.90
68485;DHT22;55472;50.060;21.960;2023-04-09T03:48:56;1.50;99.90
68485;DHT22;55472;50.060;21.960;2023-04-09T03:51:23;1.50;99.90
68485;DHT22;55472;50.060;21.960;2023-04-09T03:53:49;1.50;99.90
68485;DHT22;55472;50.060;21.960;2023-04-09T03:56:15;1.60;99.90
68485;DHT22;55472;50.060;21.960;2023-04-09T03:58:41;1.60;99.90
68485;DHT22;55472;50.060;21.960;2023-04-09T04:01:07;1.60;99.90
68485;DHT22;55472;50.060;21.960;2023-04-09T04:03:33;1.60;99.90
68485;DHT22;55472;50.060;21.960;2023-04-09T04:06:03;1.60;99.90
68485;DHT22;55472;50.060;21.960;2023-04-09T04:08:29;1.60;99.90
68485;DHT22;55472;50.060;21.960;2023-04-09T04:10:55;1.70;99.90
68485;DHT22;55472;50.060;21.960;2023-04-09T04:13:21;1.70;99.90
68485;DHT22;55472;50.060;21.960;2023-04-09T04:15:47;1.70;99.90
68485;DHT22;55472;50.060;21.960;2023-04-09T04:18:13;1.70;99.90
68485;DHT22;55472;50.060;21.960;2023-04-09T04:20:40;1.80;99.90
68485;DHT22;55472;50.060;21.960;2023-04-09T04:23:06;1.80;99.90
68485;DHT22;55472;50.060;21.960;2023-04-09T04:25:32;1.80;99.90
68485;DHT22;55472;50.060;21.960;2023-04-09T04:27:58;1.80;99.90
68485;DHT22;55472;50.060;21.960;2023-04-09T04:30:24;1.80;99.90
68485;DHT22;55472;50.060;21.960;2023-04-09T04:32:50;1.90;99.90
68485;DHT22;55472;50.060;21.960;2023-04-09T04:35:17;1.90;99.90
68485;DHT22;55472;50.060;21.960;2023-04-09T04:37:43;1.90;99.90
68485;DHT22;55472;50.060;21.960;2023-04-09T04:40:09;2.00;99.90
68485;DHT22;55472;50.060;21.960;2023-04-09T04:42:35;2.00;99.90
68485;DHT22;55472;50.060;21.960;2023-04-09T04:45:01;2.00;99.90
68485;DHT22;55472;50.060;21.960;2023-04-09T04:47:27;2.00;99.90
68485;DHT22;55472;50.060;21.960;2023-04-09T04:49:53;2.10;99.90
68485;DHT22;55472;50.060;21.960;2023-04-09T04:52:19;2.10;99.90
68485;DHT22;55472;50.060;21.960;2023-04-09T04:54:46;2.20;99.90
68485;DHT22;55472;50.060;21.960;2023-04-09T04:57:12;2.20;99.90
68485;DHT22;55472;50.060;21.960;2023-04-09T04:59:39;2.20;99.90
68485;DHT22;55472;50.060;21.960;2023-04-09T05:02:06;2.30;99.90
68485;DHT22;55472;50.060;21.960;2023-04-09T05:04:33;2.30;99.90
68485;DHT22;55472;50.060;21.960;2023-04-09T05:06:59;2.40;99.90
68485;DHT22;55472;50.060;21.960;2023-04-09T05:09:26;2.40;99.90
68485;DHT22;55472;50.060;21.960;2023-04-09T05:11:51;2.50;99.90
68485;DHT22;55472;50.060;21.960;2023-04-09T05:14:18;2.50;99.90
68485;DHT22;55472;50.060;21.960;2023-04-09T05:16:46;2.60;99.90
68485;DHT22;55472;50.060;21.960;2023-04-09T05:19:12;2.60;99.90
68485;DHT22;55472;50.060;21.960;2023-04-09T05:21:38;2.70;99.90
68485;DHT22;55472;50.060;21.960;2023-04-09T05:24:04;2.80;99.90
68485;DHT22;55472;50.060;21.960;2023-04-09T05:26:30;2.90;99.90
68485;DHT22;55472;50.060;21.960;2023-04-09T05:28:57;3.00;99.90
68485;DHT22;55472;50.060;21.960;2023-04-09T05:31:23;3.00;99.90
68485;DHT22;55472;50.060;21.960;2023-04-09T05:33:49;3.10;99.90
68485;DHT22;55472;50.060;21.960;2023-04-09T05:36:16;3.20;99.90
68485;DHT22;55472;50.060;21.960;2023-04-09T05:38:44;3.30;99.90
68485;DHT22;55472;50.060;21.960;2023-04-09T05:41:11;3.40;99.90
68485;DHT22;55472;50.060;21.960;2023-04-09T05:43:38;3.40;99.90
68485;DHT22;55472;50.060;21.960;2023-04-09T05:46:04;3.60;99.90
68485;DHT22;55472;50.060;21.960;2023-04-09T05:48:30;3.60;99.90
68485;DHT22;55472;50.060;21.960;2023-04-09T05:50:59;3.70;99.90
68485;DHT22;55472;50.060;21.960;2023-04-09T05:53:26;3.90;99.90
68485;DHT22;55472;50.060;21.960;2023-04-09T05:55:52;4.00;99.90
68485;DHT22;55472;50.060;21.960;2023-04-09T05:58:18;4.00;99.90
68485;DHT22;55472;50.060;21.960;2023-04-09T06:00:44;4.10;99.90
68485;DHT22;55472;50.060;21.960;2023-04-09T06:03:10;4.20;99.90
68485;DHT22;55472;50.060;21.960;2023-04-09T06:05:36;4.30;99.90
68485;DHT22;55472;50.060;21.960;2023-04-09T06:08:03;4.40;99.90
68485;DHT22;55472;50.060;21.960;2023-04-09T06:10:31;4.50;99.90
68485;DHT22;55472;50.060;21.960;2023-04-09T06:12:58;4.50;99.90
68485;DHT22;55472;50.060;21.960;2023-04-09T06:15:24;4.50;99.90
68485;DHT22;55472;50.060;21.960;2023-04-09T06:17:50;4.70;99.90
68485;DHT22;55472;50.060;21.960;2023-04-09T06:20:16;4.80;99.90
68485;DHT22;55472;50.060;21.960;2023-04-09T06:22:42;4.90;99.90
68485;DHT22;55472;50.060;21.960;2023-04-09T06:25:08;5.10;99.90
68485;DHT22;55472;50.060;21.960;2023-04-09T06:27:35;5.20;99.90
68485;DHT22;55472;50.060;21.960;2023-04-09T06:30:01;5.50;99.90
68485;DHT22;55472;50.060;21.960;2023-04-09T06:32:27;5.70;99.90
68485;DHT22;55472;50.060;21.960;2023-04-09T06:34:53;5.90;99.90
68485;DHT22;55472;50.060;21.960;2023-04-09T06:37:19;6.10;99.90
68485;DHT22;55472;50.060;21.960;2023-04-09T06:39:45;6.30;99.80
68485;DHT22;55472;50.060;21.960;2023-04-09T06:42:12;6.40;98.70
68485;DHT22;55472;50.060;21.960;2023-04-09T06:44:38;6.60;98.00
68485;DHT22;55472;50.060;21.960;2023-04-09T06:47:04;6.80;97.30
68485;DHT22;55472;50.060;21.960;2023-04-09T06:49:30;7.00;96.30
68485;DHT22;55472;50.060;21.960;2023-04-09T06:51:56;7.10;94.30
68485;DHT22;55472;50.060;21.960;2023-04-09T06:54:22;7.30;93.60
68485;DHT22;55472;50.060;21.960;2023-04-09T06:56:48;7.60;92.00
68485;DHT22;55472;50.060;21.960;2023-04-09T06:59:14;7.80;90.70
68485;DHT22;55472;50.060;21.960;2023-04-09T07:01:41;8.00;88.80
68485;DHT22;55472;50.060;21.960;2023-04-09T07:04:07;8.10;88.30
68485;DHT22;55472;50.060;21.960;2023-04-09T07:06:34;8.30;87.70
68485;DHT22;55472;50.060;21.960;2023-04-09T07:09:00;8.40;85.60
68485;DHT22;55472;50.060;21.960;2023-04-09T07:11:26;8.50;85.80
68485;DHT22;55472;50.060;21.960;2023-04-09T07:13:52;8.50;85.10
68485;DHT22;55472;50.060;21.960;2023-04-09T07:16:20;8.60;84.50
68485;DHT22;55472;50.060;21.960;2023-04-09T07:18:46;8.70;84.80
68485;DHT22;55472;50.060;21.960;2023-04-09T07:21:12;8.80;84.10
68485;DHT22;55472;50.060;21.960;2023-04-09T07:23:38;8.80;84.00
68485;DHT22;55472;50.060;21.960;2023-04-09T07:26:05;8.90;83.60
68485;DHT22;55472;50.060;21.960;2023-04-09T07:28:32;9.00;83.60
68485;DHT22;55472;50.060;21.960;2023-04-09T07:31:00;9.10;83.60
68485;DHT22;55472;50.060;21.960;2023-04-09T07:33:28;9.10;82.70
68485;DHT22;55472;50.060;21.960;2023-04-09T07:35:54;9.10;82.60
68485;DHT22;55472;50.060;21.960;2023-04-09T07:38:21;9.10;82.30
68485;DHT22;55472;50.060;21.960;2023-04-09T07:40:47;9.10;83.10
68485;DHT22;55472;50.060;21.960;2023-04-09T07:43:13;9.00;82.40
68485;DHT22;55472;50.060;21.960;2023-04-09T07:45:39;9.00;82.70
68485;DHT22;55472;50.060;21.960;2023-04-09T07:48:05;9.10;83.30
68485;DHT22;55472;50.060;21.960;2023-04-09T07:50:34;9.20;83.40
68485;DHT22;55472;50.060;21.960;2023-04-09T07:53:00;9.40;83.10
68485;DHT22;55472;50.060;21.960;2023-04-09T07:55:27;9.50;82.90
68485;DHT22;55472;50.060;21.960;2023-04-09T07:57:53;9.70;81.70
68485;DHT22;55472;50.060;21.960;2023-04-09T08:00:19;9.70;81.40
68485;DHT22;55472;50.060;21.960;2023-04-09T08:02:45;9.90;81.30
68485;DHT22;55472;50.060;21.960;2023-04-09T08:05:12;10.00;80.40
68485;DHT22;55472;50.060;21.960;2023-04-09T08:07:38;10.00;80.70
68485;DHT22;55472;50.060;21.960;2023-04-09T08:10:05;10.00;80.10
68485;DHT22;55472;50.060;21.960;2023-04-09T08:12:31;10.00;80.40
68485;DHT22;55472;50.060;21.960;2023-04-09T08:14:57;10.00;80.40
68485;DHT22;55472;50.060;21.960;2023-04-09T08:17:23;10.10;80.30
68485;DHT22;55472;50.060;21.960;2023-04-09T08:19:50;10.40;80.00
68485;DHT22;55472;50.060;21.960;2023-04-09T08:22:16;10.80;79.30
68485;DHT22;55472;50.060;21.960;2023-04-09T08:24:42;11.10;75.80
68485;DHT22;55472;50.060;21.960;2023-04-09T08:27:08;11.40;76.80
68485;DHT22;55472;50.060;21.960;2023-04-09T08:29:35;11.80;75.40
68485;DHT22;55472;50.060;21.960;2023-04-09T08:32:01;12.20;73.60
68485;DHT22;55472;50.060;21.960;2023-04-09T08:34:27;12.40;72.50
68485;DHT22;55472;50.060;21.960;2023-04-09T08:36:54;12.60;71.30
68485;DHT22;55472;50.060;21.960;2023-04-09T08:39:20;12.80;70.30
68485;DHT22;55472;50.060;21.960;2023-04-09T08:41:46;12.70;69.80
68485;DHT22;55472;50.060;21.960;2023-04-09T08:44:13;12.60;69.70
68485;DHT22;55472;50.060;21.960;2023-04-09T08:46:39;12.40;69.70
68485;DHT22;55472;50.060;21.960;2023-04-09T08:49:07;12.10;70.10
68485;DHT22;55472;50.060;21.960;2023-04-09T08:51:34;11.80;71.10
68485;DHT22;55472;50.060;21.960;2023-04-09T08:54:01;11.50;72.10
68485;DHT22;55472;50.060;21.960;2023-04-09T08:56:28;11.30;72.90
68485;DHT22;55472;50.060;21.960;2023-04-09T08:58:54;11.20;74.50
68485;DHT22;55472;50.060;21.960;2023-04-09T09:01:26;11.10;75.20
68485;DHT22;55472;50.060;21.960;2023-04-09T09:04:07;11.00;75.80
68485;DHT22;55472;50.060;21.960;2023-04-09T09:06:36;10.90;75.60
68485;DHT22;55472;50.060;21.960;2023-04-09T09:09:14;10.90;75.70
68485;DHT22;55472;50.060;21.960;2023-04-09T09:11:45;10.90;75.60
68485;DHT22;55472;50.060;21.960;2023-04-09T09:14:17;10.90;75.60
68485;DHT22;55472;50.060;21.960;2023-04-09T09:17:03;10.90;75.60
68485;DHT22;55472;50.060;21.960;2023-04-09T09:19:32;11.00;75.20
68485;DHT22;55472;50.060;21.960;2023-04-09T09:22:04;11.00;75.30
68485;DHT22;55472;50.060;21.960;2023-04-09T09:24:32;11.10;75.50
68485;DHT22;55472;50.060;21.960;2023-04-09T09:26:59;11.40;75.70
68485;DHT22;55472;50.060;21.960;2023-04-09T09:29:27;12.40;73.80
68485;DHT22;55472;50.060;21.960;2023-04-09T09:31:55;13.70;70.70
68485;DHT22;55472;50.060;21.960;2023-04-09T09:34:23;15.60;64.40
68485;DHT22;55472;50.060;21.960;2023-04-09T09:36:49;16.30;60.90
68485;DHT22;55472;50.060;21.960;2023-04-09T09:41:44;17.60;56.30
68485;DHT22;55472;50.060;21.960;2023-04-09T09:44:12;17.20;54.80
68485;DHT22;55472;50.060;21.960;2023-04-09T09:46:56;17.30;55.40
68485;DHT22;55472;50.060;21.960;2023-04-09T09:49:23;17.40;53.60
68485;DHT22;55472;50.060;21.960;2023-04-09T09:51:51;17.50;54.30
68485;DHT22;55472;50.060;21.960;2023-04-09T09:54:20;19.20;50.00
68485;DHT22;55472;50.060;21.960;2023-04-09T09:56:49;19.60;48.30
68485;DHT22;55472;50.060;21.960;2023-04-09T10:01:47;21.10;44.30
68485;DHT22;55472;50.060;21.960;2023-04-09T10:04:20;21.30;45.10
68485;DHT22;55472;50.060;21.960;2023-04-09T10:06:48;21.00;43.40
68485;DHT22;55472;50.060;21.960;2023-04-09T10:09:15;20.60;43.70
68485;DHT22;55472;50.060;21.960;2023-04-09T10:11:41;20.10;45.00
68485;DHT22;55472;50.060;21.960;2023-04-09T10:14:08;19.70;46.40
68485;DHT22;55472;50.060;21.960;2023-04-09T10:16:35;19.30;46.40
68485;DHT22;55472;50.060;21.960;2023-04-09T10:19:01;19.00;47.30
68485;DHT22;55472;50.060;21.960;2023-04-09T10:21:52;18.70;47.40
68485;DHT22;55472;50.060;21.960;2023-04-09T10:24:23;18.30;48.50
68485;DHT22;55472;50.060;21.960;2023-04-09T10:26:53;18.10;48.60
68485;DHT22;55472;50.060;21.960;2023-04-09T10:29:27;17.90;48.40
68485;DHT22;55472;50.060;21.960;2023-04-09T10:32:04;17.70;48.20
68485;DHT22;55472;50.060;21.960;2023-04-09T10:34:41;17.70;49.30
68485;DHT22;55472;50.060;21.960;2023-04-09T10:37:16;17.70;49.10
68485;DHT22;55472;50.060;21.960;2023-04-09T10:39:48;17.70;49.40
68485;DHT22;55472;50.060;21.960;2023-04-09T10:42:28;16.70;48.40
68485;DHT22;55472;50.060;21.960;2023-04-09T10:45:04;16.50;49.20
68485;DHT22;55472;50.060;21.960;2023-04-09T10:47:33;16.50;50.30
68485;DHT22;55472;50.060;21.960;2023-04-09T10:50:17;16.50;50.10
68485;DHT22;55472;50.060;21.960;2023-04-09T10:52:51;16.60;49.80
68485;DHT22;55472;50.060;21.960;2023-04-09T10:55:38;16.40;50.50
68485;DHT22;55472;50.060;21.960;2023-04-09T10:58:07;16.40;48.20
68485;DHT22;55472;50.060;21.960;2023-04-09T11:00:47;16.10;48.10
68485;DHT22;55472;50.060;21.960;2023-04-09T11:03:27;15.90;47.60
68485;DHT22;55472;50.060;21.960;2023-04-09T11:06:05;15.60;48.20
68485;DHT22;55472;50.060;21.960;2023-04-09T11:08:34;15.20;49.20
68485;DHT22;55472;50.060;21.960;2023-04-09T11:11:01;14.90;49.90
68485;DHT22;55472;50.060;21.960;2023-04-09T11:13:29;14.80;50.60
68485;DHT22;55472;50.060;21.960;2023-04-09T11:15:57;14.80;50.90
68485;DHT22;55472;50.060;21.960;2023-04-09T11:18:27;14.90;50.80
68485;DHT22;55472;50.060;21.960;2023-04-09T11:20:55;14.80;49.00
68485;DHT22;55472;50.060;21.960;2023-04-09T11:23:23;14.80;49.70
68485;DHT22;55472;50.060;21.960;2023-04-09T11:25:51;14.80;50.40
68485;DHT22;55472;50.060;21.960;2023-04-09T11:28:17;14.80;50.60
68485;DHT22;55472;50.060;21.960;2023-04-09T11:30:44;14.90;51.80
68485;DHT22;55472;50.060;21.960;2023-04-09T11:33:13;15.20;51.60
68485;DHT22;55472;50.060;21.960;2023-04-09T11:35:40;15.20;48.30
68485;DHT22;55472;50.060;21.960;2023-04-09T11:38:10;15.20;48.80
68485;DHT22;55472;50.060;21.960;2023-04-09T11:40:40;14.90;49.50
68485;DHT22;55472;50.060;21.960;2023-04-09T11:43:12;14.80;49.10
68485;DHT22;55472;50.060;21.960;2023-04-09T11:45:41;14.80;49.60
68485;DHT22;55472;50.060;21.960;2023-04-09T11:48:08;15.00;51.80
68485;DHT22;55472;50.060;21.960;2023-04-09T11:50:35;15.10;51.00
68485;DHT22;55472;50.060;21.960;2023-04-09T11:53:15;15.20;49.40
68485;DHT22;55472;50.060;21.960;2023-04-09T11:55:50;15.40;49.70
68485;DHT22;55472;50.060;21.960;2023-04-09T11:58:16;15.60;49.80
68485;DHT22;55472;50.060;21.960;2023-04-09T12:00:43;15.80;48.30
68485;DHT22;55472;50.060;21.960;2023-04-09T12:03:10;16.00;47.50
68485;DHT22;55472;50.060;21.960;2023-04-09T12:05:36;15.80;44.90
68485;DHT22;55472;50.060;21.960;2023-04-09T12:08:06;15.80;45.20
68485;DHT22;55472;50.060;21.960;2023-04-09T12:10:34;15.80;48.10
68485;DHT22;55472;50.060;21.960;2023-04-09T12:13:07;15.70;50.60
68485;DHT22;55472;50.060;21.960;2023-04-09T12:15:36;15.80;52.80
68485;DHT22;55472;50.060;21.960;2023-04-09T12:18:10;16.00;52.60
68485;DHT22;55472;50.060;21.960;2023-04-09T12:20:39;16.10;52.50
68485;DHT22;55472;50.060;21.960;2023-04-09T12:23:09;16.30;52.90
68485;DHT22;55472;50.060;21.960;2023-04-09T12:25:38;16.30;52.80
68485;DHT22;55472;50.060;21.960;2023-04-09T12:28:08;16.10;53.00
68485;DHT22;55472;50.060;21.960;2023-04-09T12:30:35;16.00;52.70
68485;DHT22;55472;50.060;21.960;2023-04-09T12:33:05;15.90;53.40
68485;DHT22;55472;50.060;21.960;2023-04-09T12:35:31;15.70;53.40
68485;DHT22;55472;50.060;21.960;2023-04-09T12:37:59;15.50;53.70
68485;DHT22;55472;50.060;21.960;2023-04-09T12:40:26;15.30;53.60
68485;DHT22;55472;50.060;21.960;2023-04-09T12:42:52;15.00;54.70
68485;DHT22;55472;50.060;21.960;2023-04-09T12:45:19;14.90;56.50
68485;DHT22;55472;50.060;21.960;2023-04-09T12:47:45;14.70;56.60
68485;DHT22;55472;50.060;21.960;2023-04-09T12:50:12;14.50;57.50
68485;DHT22;55472;50.060;21.960;2023-04-09T12:52:39;14.40;57.70
68485;DHT22;55472;50.060;21.960;2023-04-09T12:55:06;14.20;57.10
68485;DHT22;55472;50.060;21.960;2023-04-09T12:57:33;14.10;57.90
68485;DHT22;55472;50.060;21.960;2023-04-09T13:00:00;14.00;58.40
68485;DHT22;55472;50.060;21.960;2023-04-09T13:02:26;13.90;58.90
68485;DHT22;55472;50.060;21.960;2023-04-09T13:04:52;13.90;57.40
68485;DHT22;55472;50.060;21.960;2023-04-09T13:07:18;13.80;56.90
68485;DHT22;55472;50.060;21.960;2023-04-09T13:09:45;13.80;56.60
68485;DHT22;55472;50.060;21.960;2023-04-09T13:12:13;13.80;56.30
68485;DHT22;55472;50.060;21.960;2023-04-09T13:14:42;13.80;57.00
68485;DHT22;55472;50.060;21.960;2023-04-09T13:17:08;13.70;57.70
68485;DHT22;55472;50.060;21.960;2023-04-09T13:19:34;13.80;57.90
68485;DHT22;55472;50.060;21.960;2023-04-09T13:22:01;14.00;56.80
68485;DHT22;55472;50.060;21.960;2023-04-09T13:24:27;14.10;55.40
68485;DHT22;55472;50.060;21.960;2023-04-09T13:26:53;14.20;56.00
68485;DHT22;55472;50.060;21.960;2023-04-09T13:29:19;14.20;55.60
68485;DHT22;55472;50.060;21.960;2023-04-09T13:31:45;14.10;55.50
68485;DHT22;55472;50.060;21.960;2023-04-09T13:34:12;14.00;55.30
68485;DHT22;55472;50.060;21.960;2023-04-09T13:36:38;14.00;56.40
68485;DHT22;55472;50.060;21.960;2023-04-09T13:39:04;13.80;55.90
68485;DHT22;55472;50.060;21.960;2023-04-09T13:41:32;13.70;54.80
68485;DHT22;55472;50.060;21.960;2023-04-09T13:43:59;13.40;57.00
68485;DHT22;55472;50.060;21.960;2023-04-09T13:46:25;13.30;56.80
68485;DHT22;55472;50.060;21.960;2023-04-09T13:48:53;13.10;57.80
68485;DHT22;55472;50.060;21.960;2023-04-09T13:51:22;13.00;58.00
68485;DHT22;55472;50.060;21.960;2023-04-09T13:53:49;12.90;57.60
68485;DHT22;55472;50.060;21.960;2023-04-09T13:56:15;12.80;57.40
68485;DHT22;55472;50.060;21.960;2023-04-09T13:58:41;12.70;59.30
68485;DHT22;55472;50.060;21.960;2023-04-09T14:01:09;12.70;59.70
68485;DHT22;55472;50.060;21.960;2023-04-09T14:03:36;12.60;59.30
68485;DHT22;55472;50.060;21.960;2023-04-09T14:06:08;12.60;59.40
68485;DHT22;55472;50.060;21.960;2023-04-09T14:08:35;12.60;60.40
68485;DHT22;55472;50.060;21.960;2023-04-09T14:11:01;12.70;60.50
68485;DHT22;55472;50.060;21.960;2023-04-09T14:13:28;12.60;60.50
68485;DHT22;55472;50.060;21.960;2023-04-09T14:15:55;12.70;61.80
68485;DHT22;55472;50.060;21.960;2023-04-09T14:18:21;12.70;61.20
68485;DHT22;55472;50.060;21.960;2023-04-09T14:20:47;12.80;62.60
68485;DHT22;55472;50.060;21.960;2023-04-09T14:23:13;12.80;61.40
68485;DHT22;55472;50.060;21.960;2023-04-09T14:25:39;12.70;60.50
68485;DHT22;55472;50.060;21.960;2023-04-09T14:28:06;12.70;59.70
68485;DHT22;55472;50.060;21.960;2023-04-09T14:30:32;12.70;59.20
68485;DHT22;55472;50.060;21.960;2023-04-09T14:32:58;12.60;58.90
68485;DHT22;55472;50.060;21.960;2023-04-09T14:35:24;12.60;59.90
68485;DHT22;55472;50.060;21.960;2023-04-09T14:37:51;12.60;59.60
68485;DHT22;55472;50.060;21.960;2023-04-09T14:40:17;12.60;60.90
68485;DHT22;55472;50.060;21.960;2023-04-09T14:42:44;12.60;61.20
68485;DHT22;55472;50.060;21.960;2023-04-09T14:45:10;12.60;60.00
68485;DHT22;55472;50.060;21.960;2023-04-09T14:47:37;12.50;58.00
68485;DHT22;55472;50.060;21.960;2023-04-09T14:50:03;12.40;57.50
68485;DHT22;55472;50.060;21.960;2023-04-09T14:52:29;12.40;57.90
68485;DHT22;55472;50.060;21.960;2023-04-09T14:54:55;12.40;59.90
68485;DHT22;55472;50.060;21.960;2023-04-09T14:57:22;12.40;59.40
68485;DHT22;55472;50.060;21.960;2023-04-09T14:59:48;12.30;58.30
68485;DHT22;55472;50.060;21.960;2023-04-09T15:02:14;12.20;57.70
68485;DHT22;55472;50.060;21.960;2023-04-09T15:04:41;12.10;58.50
68485;DHT22;55472;50.060;21.960;2023-04-09T15:07:07;12.10;59.90
68485;DHT22;55472;50.060;21.960;2023-04-09T15:09:33;12.10;59.60
68485;DHT22;55472;50.060;21.960;2023-04-09T15:11:59;12.10;59.80
68485;DHT22;55472;50.060;21.960;2023-04-09T15:14:29;12.10;59.50
68485;DHT22;55472;50.060;21.960;2023-04-09T15:16:56;12.10;58.60
68485;DHT22;55472;50.060;21.960;2023-04-09T15:19:22;12.10;58.00
68485;DHT22;55472;50.060;21.960;2023-04-09T15:21:48;12.00;58.20
68485;DHT22;55472;50.060;21.960;2023-04-09T15:24:14;11.90;58.30
68485;DHT22;55472;50.060;21.960;2023-04-09T15:26:40;11.90;59.90
68485;DHT22;55472;50.060;21.960;2023-04-09T15:29:08;11.90;61.50
68485;DHT22;55472;50.060;21.960;2023-04-09T15:31:35;11.90;63.70
68485;DHT22;55472;50.060;21.960;2023-04-09T15:34:01;11.90;65.20
68485;DHT22;55472;50.060;21.960;2023-04-09T15:36:27;11.80;66.10
68485;DHT22;55472;50.060;21.960;2023-04-09T15:38:55;11.80;66.90
68485;DHT22;55472;50.060;21.960;2023-04-09T15:41:21;11.70;66.90
68485;DHT22;55472;50.060;21.960;2023-04-09T15:43:49;11.60;67.00